sensor_id;sensor_type;location;lat;lon;timestamp;pressure;altitude;pressure_sealevel;temperature;humidity
9855;BME280;4966;48.112;9.282;2023-05-09T00:00:12;94985.91;;;15.80;89.82
9855;BME280;4966;48.112;9.282;2023-05-09T00:02:38;94995.19;;;15.52;90.72
9855;BME280;4966;48.112;9.282;2023-05-09T00:05:04;94985.19;;;15.44;91.13
9855;BME280;4966;48.112;9.282;2023-05-09T00:07:32;94984.28;;;15.36;91.54
9855;BME280;4966;48.112;9.282;2023-05-09T00:09:57;94985.44;;;15.35;91.78
9855;BME280;4966;48.112;9.282;2023-05-09T00:12:23;94983.34;;;15.28;91.97
9855;BME280;4966;48.112;9.282;2023-05-09T00:14:49;94982.41;;;15.21;92.73
9855;BME280;4966;48.112;9.282;2023-05-09T00:17:16;94980.25;;;15.30;92.58
9855;BME280;4966;48.112;9.282;2023-05-09T00:19:43;94983.97;;;15.41;91.57
9855;BME280;4966;48.112;9.282;2023-05-09T00:22:09;94980.88;;;15.43;91.37
9855;BME280;4966;48.112;9.282;2023-05-09T00:24:34;94987.75;;;15.33;91.98
9855;BME280;4966;48.112;9.282;2023-05-09T00:27:00;94981.03;;;15.30;92.08
9855;BME280;4966;48.112;9.282;2023-05-09T00:29:25;94981.69;;;15.43;91.01
9855;BME280;4966;48.112;9.282;2023-05-09T00:31:51;94970.28;;;15.22;90.74
9855;BME280;4966;48.112;9.282;2023-05-09T00:34:16;94966.97;;;15.13;90.72
9855;BME280;4966;48.112;9.282;2023-05-09T00:36:42;94959.91;;;15.12;89.86
9855;BME280;4966;48.112;9.282;2023-05-09T00:39:07;94956.16;;;14.65;91.17
9855;BME280;4966;48.112;9.282;2023-05-09T00:41:32;94953.38;;;14.30;93.58
9855;BME280;4966;48.112;9.282;2023-05-09T00:43:58;94954.88;;;14.27;93.16
9855;BME280;4966;48.112;9.282;2023-05-09T00:46:23;94952.72;;;14.36;92.04
9855;BME280;4966;48.112;9.282;2023-05-09T00:48:49;94948.59;;;14.26;91.84
9855;BME280;4966;48.112;9.282;2023-05-09T00:51:14;94951.44;;;14.30;91.79
9855;BME280;4966;48.112;9.282;2023-05-09T00:53:39;94939.88;;;14.21;92.08
9855;BME280;4966;48.112;9.282;2023-05-09T00:56:06;94939.00;;;14.01;92.03
9855;BME280;4966;48.112;9.282;2023-05-09T00:58:32;94939.34;;;13.83;93.30
9855;BME280;4966;48.112;9.282;2023-05-09T01:00:57;94945.50;;;13.65;95.19
9855;BME280;4966;48.112;9.282;2023-05-09T01:03:24;94951.69;;;13.93;93.90
9855;BME280;4966;48.112;9.282;2023-05-09T01:06:21;94949.50;;;13.83;93.51
9855;BME280;4966;48.112;9.282;2023-05-09T01:08:56;94952.16;;;13.79;93.52
9855;BME280;4966;48.112;9.282;2023-05-09T01:15:30;94942.34;;;13.78;94.28
9855;BME280;4966;48.112;9.282;2023-05-09T01:17:38;94942.34;;;13.78;93.93
9855;BME280;4966;48.112;9.282;2023-05-09T01:26:24;94948.16;;;13.93;91.68
9855;BME280;4966;48.112;9.282;2023-05-09T01:31:40;94948.06;;;14.05;91.70
9855;BME280;4966;48.112;9.282;2023-05-09T01:34:08;94942.09;;;13.99;90.70
9855;BME280;4966;48.112;9.282;2023-05-09T01:36:37;94940.94;;;13.85;91.62
9855;BME280;4966;48.112;9.282;2023-05-09T01:39:05;94944.03;;;13.83;92.45
9855;BME280;4966;48.112;9.282;2023-05-09T01:41:35;94938.38;;;13.92;92.79
9855;BME280;4966;48.112;9.282;2023-05-09T01:44:04;94934.03;;;13.91;93.10
9855;BME280;4966;48.112;9.282;2023-05-09T01:46:31;94934.41;;;14.05;93.15
9855;BME280;4966;48.112;9.282;2023-05-09T01:48:56;94928.25;;;14.08;92.41
9855;BME280;4966;48.112;9.282;2023-05-09T01:51:23;94931.31;;;14.07;92.50
9855;BME280;4966;48.112;9.282;2023-05-09T01:53:50;94926.75;;;14.11;92.36
9855;BME280;4966;48.112;9.282;2023-05-09T01:56:17;94927.41;;;14.23;91.73
9855;BME280;4966;48.112;9.282;2023-05-09T01:58:45;94929.66;;;14.18;91.63
9855;BME280;4966;48.112;9.282;2023-05-09T02:01:13;94937.31;;;14.12;92.34
9855;BME280;4966;48.112;9.282;2023-05-09T02:03:39;94932.81;;;14.04;93.06
9855;BME280;4966;48.112;9.282;2023-05-09T02:06:06;94935.91;;;14.18;92.74
9855;BME280;4966;48.112;9.282;2023-05-09T02:08:32;94927.88;;;14.25;90.23
9855;BME280;4966;48.112;9.282;2023-05-09T02:10:58;94933.25;;;14.22;89.20
9855;BME280;4966;48.112;9.282;2023-05-09T02:13:23;94931.66;;;14.05;90.39
9855;BME280;4966;48.112;9.282;2023-05-09T02:15:49;94935.75;;;13.79;91.53
9855;BME280;4966;48.112;9.282;2023-05-09T02:18:14;94925.41;;;13.73;91.92
9855;BME280;4966;48.112;9.282;2023-05-09T02:20:41;94923.72;;;13.68;92.55
9855;BME280;4966;48.112;9.282;2023-05-09T02:23:06;94930.53;;;13.74;92.97
9855;BME280;4966;48.112;9.282;2023-05-09T02:25:33;94924.97;;;13.71;93.86
9855;BME280;4966;48.112;9.282;2023-05-09T02:27:59;94928.75;;;13.66;94.28
9855;BME280;4966;48.112;9.282;2023-05-09T02:30:25;94926.66;;;13.75;93.35
9855;BME280;4966;48.112;9.282;2023-05-09T02:33:00;94924.63;;;13.72;94.09
9855;BME280;4966;48.112;9.282;2023-05-09T02:35:26;94927.81;;;13.74;94.10
9855;BME280;4966;48.112;9.282;2023-05-09T02:37:53;94916.97;;;13.94;92.87
9855;BME280;4966;48.112;9.282;2023-05-09T02:40:20;94914.19;;;14.10;92.40
9855;BME280;4966;48.112;9.282;2023-05-09T02:42:46;94908.66;;;13.90;92.38
9855;BME280;4966;48.112;9.282;2023-05-09T02:45:11;94911.28;;;14.02;91.55
9855;BME280;4966;48.112;9.282;2023-05-09T02:47:37;94908.94;;;14.01;91.39
9855;BME280;4966;48.112;9.282;2023-05-09T02:50:03;94906.81;;;13.94;91.65
9855;BME280;4966;48.112;9.282;2023-05-09T02:52:28;94901.50;;;14.01;90.56
9855;BME280;4966;48.112;9.282;2023-05-09T02:54:54;94896.31;;;13.80;91.98
9855;BME280;4966;48.112;9.282;2023-05-09T02:57:19;94893.84;;;13.75;92.51
9855;BME280;4966;48.112;9.282;2023-05-09T02:59:45;94887.66;;;13.78;91.93
9855;BME280;4966;48.112;9.282;2023-05-09T03:02:10;94890.66;;;13.73;92.37
9855;BME280;4966;48.112;9.282;2023-05-09T03:04:36;94882.13;;;13.75;92.71
9855;BME280;4966;48.112;9.282;2023-05-09T03:07:01;94878.94;;;13.89;92.99
9855;BME280;4966;48.112;9.282;2023-05-09T03:09:27;94874.94;;;13.86;92.78
9855;BME280;4966;48.112;9.282;2023-05-09T03:11:54;94880.06;;;13.88;92.80
9855;BME280;4966;48.112;9.282;2023-05-09T03:14:20;94883.25;;;13.74;93.19
9855;BME280;4966;48.112;9.282;2023-05-09T03:16:45;94885.25;;;13.45;96.06
9855;BME280;4966;48.112;9.282;2023-05-09T03:19:11;94893.22;;;13.66;94.65
9855;BME280;4966;48.112;9.282;2023-05-09T03:21:36;94881.91;;;13.83;93.49
9855;BME280;4966;48.112;9.282;2023-05-09T03:24:01;94881.84;;;13.80;93.50
9855;BME280;4966;48.112;9.282;2023-05-09T03:26:29;94873.81;;;13.87;93.10
9855;BME280;4966;48.112;9.282;2023-05-09T03:28:54;94877.44;;;13.91;93.05
9855;BME280;4966;48.112;9.282;2023-05-09T03:31:19;94873.28;;;13.97;92.01
9855;BME280;4966;48.112;9.282;2023-05-09T03:33:45;94873.44;;;14.04;90.59
9855;BME280;4966;48.112;9.282;2023-05-09T03:36:10;94867.63;;;13.90;89.82
9855;BME280;4966;48.112;9.282;2023-05-09T03:38:36;94868.06;;;13.76;90.22
9855;BME280;4966;48.112;9.282;2023-05-09T03:41:01;94870.56;;;13.81;90.31
9855;BME280;4966;48.112;9.282;2023-05-09T03:43:28;94861.56;;;13.65;90.36
9855;BME280;4966;48.112;9.282;2023-05-09T03:45:53;94859.25;;;13.51;90.82
9855;BME280;4966;48.112;9.282;2023-05-09T03:48:18;94861.63;;;13.37;91.40
9855;BME280;4966;48.112;9.282;2023-05-09T03:50:43;94871.84;;;13.12;93.70
9855;BME280;4966;48.112;9.282;2023-05-09T03:53:09;94871.38;;;13.22;92.65
9855;BME280;4966;48.112;9.282;2023-05-09T03:55:34;94868.09;;;13.16;93.13
9855;BME280;4966;48.112;9.282;2023-05-09T03:58:00;94862.16;;;13.14;93.94
9855;BME280;4966;48.112;9.282;2023-05-09T04:00:25;94869.78;;;13.21;93.82
9855;BME280;4966;48.112;9.282;2023-05-09T04:02:51;94868.19;;;13.20;94.25
9855;BME280;4966;48.112;9.282;2023-05-09T04:05:16;94867.00;;;13.33;94.06
9855;BME280;4966;48.112;9.282;2023-05-09T04:07:42;94868.84;;;13.45;94.51
9855;BME280;4966;48.112;9.282;2023-05-09T04:10:08;94864.38;;;13.53;94.91
9855;BME280;4966;48.112;9.282;2023-05-09T04:12:33;94869.22;;;13.59;94.63
9855;BME280;4966;48.112;9.282;2023-05-09T04:14:59;94863.59;;;13.68;95.10
9855;BME280;4966;48.112;9.282;2023-05-09T04:17:25;94870.56;;;13.66;94.82
9855;BME280;4966;48.112;9.282;2023-05-09T04:19:50;94861.31;;;13.70;94.72
9855;BME280;4966;48.112;9.282;2023-05-09T04:22:15;94865.09;;;13.81;94.32
9855;BME280;4966;48.112;9.282;2023-05-09T04:24:41;94863.03;;;13.94;93.75
9855;BME280;4966;48.112;9.282;2023-05-09T04:27:06;94858.63;;;13.90;93.37
9855;BME280;4966;48.112;9.282;2023-05-09T04:29:32;94863.72;;;14.07;92.33
9855;BME280;4966;48.112;9.282;2023-05-09T04:31:58;94865.84;;;14.14;90.70
9855;BME280;4966;48.112;9.282;2023-05-09T04:34:23;94869.13;;;14.03;90.68
9855;BME280;4966;48.112;9.282;2023-05-09T04:36:50;94867.78;;;13.97;90.88
9855;BME280;4966;48.112;9.282;2023-05-09T04:39:16;94858.81;;;13.97;90.63
9855;BME280;4966;48.112;9.282;2023-05-09T04:41:41;94866.78;;;14.21;88.89
9855;BME280;4966;48.112;9.282;2023-05-09T04:44:09;94863.22;;;14.37;88.18
9855;BME280;4966;48.112;9.282;2023-05-09T04:46:34;94860.25;;;14.26;88.92
9855;BME280;4966;48.112;9.282;2023-05-09T04:49:00;94866.22;;;14.32;89.40
9855;BME280;4966;48.112;9.282;2023-05-09T04:51:25;94874.19;;;14.37;89.88
9855;BME280;4966;48.112;9.282;2023-05-09T04:53:51;94870.72;;;14.40;89.82
9855;BME280;4966;48.112;9.282;2023-05-09T04:56:16;94864.81;;;14.38;90.10
9855;BME280;4966;48.112;9.282;2023-05-09T04:58:41;94867.47;;;14.34;90.46
9855;BME280;4966;48.112;9.282;2023-05-09T05:01:07;94862.00;;;14.34;90.80
9855;BME280;4966;48.112;9.282;2023-05-09T05:03:32;94861.94;;;14.50;90.10
9855;BME280;4966;48.112;9.282;2023-05-09T05:05:58;94859.59;;;14.49;89.59
9855;BME280;4966;48.112;9.282;2023-05-09T05:08:23;94856.41;;;14.46;89.75
9855;BME280;4966;48.112;9.282;2023-05-09T05:10:49;94864.78;;;14.18;91.63
9855;BME280;4966;48.112;9.282;2023-05-09T05:13:15;94862.34;;;14.33;91.41
9855;BME280;4966;48.112;9.282;2023-05-09T05:15:41;94874.38;;;14.28;91.39
9855;BME280;4966;48.112;9.282;2023-05-09T05:18:06;94872.84;;;14.31;91.55
9855;BME280;4966;48.112;9.282;2023-05-09T05:20:32;94874.22;;;14.05;92.75
9855;BME280;4966;48.112;9.282;2023-05-09T05:22:57;94870.59;;;14.17;92.83
9855;BME280;4966;48.112;9.282;2023-05-09T05:25:24;94872.22;;;14.37;91.57
9855;BME280;4966;48.112;9.282;2023-05-09T05:27:49;94876.69;;;14.10;93.00
9855;BME280;4966;48.112;9.282;2023-05-09T05:30:15;94873.53;;;14.43;91.34
9855;BME280;4966;48.112;9.282;2023-05-09T05:32:41;94865.25;;;14.56;90.64
9855;BME280;4966;48.112;9.282;2023-05-09T05:35:09;94867.13;;;14.71;90.20
9855;BME280;4966;48.112;9.282;2023-05-09T05:37:38;94862.41;;;14.72;89.90
9855;BME280;4966;48.112;9.282;2023-05-09T05:40:04;94857.19;;;14.63;89.76
9855;BME280;4966;48.112;9.282;2023-05-09T05:42:30;94864.09;;;14.76;89.51
9855;BME280;4966;48.112;9.282;2023-05-09T05:44:55;94864.22;;;14.83;89.00
9855;BME280;4966;48.112;9.282;2023-05-09T05:47:21;94862.69;;;15.05;87.49
9855;BME280;4966;48.112;9.282;2023-05-09T05:49:46;94855.28;;;14.86;88.41
9855;BME280;4966;48.112;9.282;2023-05-09T05:52:12;94855.81;;;14.92;87.27
9855;BME280;4966;48.112;9.282;2023-05-09T05:54:37;94859.31;;;15.12;87.76
9855;BME280;4966;48.112;9.282;2023-05-09T05:57:02;94863.84;;;15.24;87.66
9855;BME280;4966;48.112;9.282;2023-05-09T05:59:27;94863.06;;;15.23;87.83
9855;BME280;4966;48.112;9.282;2023-05-09T06:01:53;94860.19;;;15.39;87.62
9855;BME280;4966;48.112;9.282;2023-05-09T06:04:18;94861.41;;;15.19;88.05
9855;BME280;4966;48.112;9.282;2023-05-09T06:06:44;94856.56;;;15.12;88.24
9855;BME280;4966;48.112;9.282;2023-05-09T06:09:09;94862.41;;;15.10;89.39
9855;BME280;4966;48.112;9.282;2023-05-09T06:11:35;94854.03;;;15.23;88.80
9855;BME280;4966;48.112;9.282;2023-05-09T06:14:00;94861.03;;;15.20;88.86
9855;BME280;4966;48.112;9.282;2023-05-09T06:16:26;94854.44;;;15.44;87.93
9855;BME280;4966;48.112;9.282;2023-05-09T06:18:52;94849.31;;;15.66;86.53
9855;BME280;4966;48.112;9.282;2023-05-09T06:21:17;94842.50;;;15.79;85.51
9855;BME280;4966;48.112;9.282;2023-05-09T06:23:42;94841.50;;;15.68;85.46
9855;BME280;4966;48.112;9.282;2023-05-09T06:26:08;94836.09;;;15.25;89.72
9855;BME280;4966;48.112;9.282;2023-05-09T06:28:33;94833.88;;;15.58;87.09
9855;BME280;4966;48.112;9.282;2023-05-09T06:30:58;94834.44;;;15.67;86.69
9855;BME280;4966;48.112;9.282;2023-05-09T06:33:24;94824.88;;;15.80;85.15
9855;BME280;4966;48.112;9.282;2023-05-09T06:35:50;94818.56;;;16.03;83.93
9855;BME280;4966;48.112;9.282;2023-05-09T06:38:15;94823.47;;;15.67;86.19
9855;BME280;4966;48.112;9.282;2023-05-09T06:40:40;94825.16;;;15.71;85.67
9855;BME280;4966;48.112;9.282;2023-05-09T06:43:06;94832.38;;;15.60;87.01
9855;BME280;4966;48.112;9.282;2023-05-09T06:45:31;94835.41;;;15.55;86.83
9855;BME280;4966;48.112;9.282;2023-05-09T06:47:57;94836.63;;;15.58;86.69
9855;BME280;4966;48.112;9.282;2023-05-09T06:50:22;94836.53;;;15.73;85.56
9855;BME280;4966;48.112;9.282;2023-05-09T06:52:47;94821.41;;;15.83;85.65
9855;BME280;4966;48.112;9.282;2023-05-09T06:55:13;94828.97;;;15.67;86.91
9855;BME280;4966;48.112;9.282;2023-05-09T06:57:38;94829.53;;;15.76;86.56
9855;BME280;4966;48.112;9.282;2023-05-09T07:00:07;94827.94;;;16.02;85.84
9855;BME280;4966;48.112;9.282;2023-05-09T07:02:33;94815.81;;;16.03;84.94
9855;BME280;4966;48.112;9.282;2023-05-09T07:04:59;94820.16;;;16.04;85.65
9855;BME280;4966;48.112;9.282;2023-05-09T07:07:24;94820.31;;;16.45;83.55
9855;BME280;4966;48.112;9.282;2023-05-09T07:09:50;94817.16;;;16.73;81.49
9855;BME280;4966;48.112;9.282;2023-05-09T07:12:15;94805.50;;;16.79;81.19
9855;BME280;4966;48.112;9.282;2023-05-09T07:14:40;94800.44;;;16.85;81.13
9855;BME280;4966;48.112;9.282;2023-05-09T07:17:06;94796.16;;;16.88;80.63
9855;BME280;4966;48.112;9.282;2023-05-09T07:19:33;94793.78;;;17.23;78.30
9855;BME280;4966;48.112;9.282;2023-05-09T07:21:58;94787.38;;;17.09;77.22
9855;BME280;4966;48.112;9.282;2023-05-09T07:24:23;94793.50;;;16.95;79.28
9855;BME280;4966;48.112;9.282;2023-05-09T07:26:49;94781.94;;;17.16;78.30
9855;BME280;4966;48.112;9.282;2023-05-09T07:29:14;94781.44;;;17.03;78.09
9855;BME280;4966;48.112;9.282;2023-05-09T07:31:39;94780.56;;;17.36;76.41
9855;BME280;4966;48.112;9.282;2023-05-09T07:34:05;94779.03;;;17.39;77.42
9855;BME280;4966;48.112;9.282;2023-05-09T07:36:30;94776.00;;;17.51;76.69
9855;BME280;4966;48.112;9.282;2023-05-09T07:38:57;94767.97;;;17.32;78.29
9855;BME280;4966;48.112;9.282;2023-05-09T07:41:22;94761.47;;;17.54;76.56
9855;BME280;4966;48.112;9.282;2023-05-09T07:43:47;94753.97;;;17.51;76.36
9855;BME280;4966;48.112;9.282;2023-05-09T07:46:13;94752.06;;;17.59;75.32
9855;BME280;4966;48.112;9.282;2023-05-09T07:48:38;94757.88;;;17.95;74.87
9855;BME280;4966;48.112;9.282;2023-05-09T07:51:04;94761.44;;;18.02;75.67
9855;BME280;4966;48.112;9.282;2023-05-09T07:53:29;94759.84;;;17.94;76.00
9855;BME280;4966;48.112;9.282;2023-05-09T07:55:54;94759.47;;;17.96;75.60
9855;BME280;4966;48.112;9.282;2023-05-09T07:58:19;94755.72;;;18.36;74.00
9855;BME280;4966;48.112;9.282;2023-05-09T08:00:45;94752.03;;;18.80;72.43
9855;BME280;4966;48.112;9.282;2023-05-09T08:03:10;94742.22;;;18.97;71.78
9855;BME280;4966;48.112;9.282;2023-05-09T08:05:36;94742.13;;;18.76;71.08
9855;BME280;4966;48.112;9.282;2023-05-09T08:08:01;94737.13;;;18.99;71.18
9855;BME280;4966;48.112;9.282;2023-05-09T08:10:27;94731.97;;;18.90;69.66
9855;BME280;4966;48.112;9.282;2023-05-09T08:12:55;94736.69;;;18.90;70.95
9855;BME280;4966;48.112;9.282;2023-05-09T08:15:20;94728.06;;;19.02;70.38
9855;BME280;4966;48.112;9.282;2023-05-09T08:17:45;94732.44;;;19.50;69.17
9855;BME280;4966;48.112;9.282;2023-05-09T08:20:11;94730.88;;;19.74;67.47
9855;BME280;4966;48.112;9.282;2023-05-09T08:22:38;94723.78;;;19.37;69.51
9855;BME280;4966;48.112;9.282;2023-05-09T08:25:04;94722.97;;;19.97;66.06
9855;BME280;4966;48.112;9.282;2023-05-09T08:27:29;94714.59;;;20.30;63.55
9855;BME280;4966;48.112;9.282;2023-05-09T08:29:54;94709.44;;;20.39;62.72
9855;BME280;4966;48.112;9.282;2023-05-09T08:32:20;94715.88;;;19.93;65.93
9855;BME280;4966;48.112;9.282;2023-05-09T08:34:45;94708.25;;;20.36;64.61
9855;BME280;4966;48.112;9.282;2023-05-09T08:37:11;94714.19;;;20.28;63.08
9855;BME280;4966;48.112;9.282;2023-05-09T08:39:36;94711.16;;;19.36;67.77
9855;BME280;4966;48.112;9.282;2023-05-09T08:42:01;94705.22;;;19.98;64.52
9855;BME280;4966;48.112;9.282;2023-05-09T08:44:29;94707.91;;;20.24;62.50
9855;BME280;4966;48.112;9.282;2023-05-09T08:46:58;94704.66;;;20.47;60.26
9855;BME280;4966;48.112;9.282;2023-05-09T08:49:24;94708.72;;;20.06;62.59
9855;BME280;4966;48.112;9.282;2023-05-09T08:51:50;94697.16;;;20.62;61.33
9855;BME280;4966;48.112;9.282;2023-05-09T08:54:17;94699.88;;;20.69;59.54
9855;BME280;4966;48.112;9.282;2023-05-09T08:56:42;94699.72;;;19.48;65.15
9855;BME280;4966;48.112;9.282;2023-05-09T08:59:08;94712.69;;;20.05;64.06
9855;BME280;4966;48.112;9.282;2023-05-09T09:01:33;94696.09;;;20.19;62.85
9855;BME280;4966;48.112;9.282;2023-05-09T09:04:05;94691.84;;;19.54;66.91
9855;BME280;4966;48.112;9.282;2023-05-09T09:06:34;94693.03;;;19.71;66.01
9855;BME280;4966;48.112;9.282;2023-05-09T09:09:01;94692.63;;;19.80;66.66
9855;BME280;4966;48.112;9.282;2023-05-09T09:11:27;94687.91;;;19.80;64.60
9855;BME280;4966;48.112;9.282;2023-05-09T09:13:53;94689.34;;;20.28;64.08
9855;BME280;4966;48.112;9.282;2023-05-09T09:16:24;94676.63;;;20.45;62.26
9855;BME280;4966;48.112;9.282;2023-05-09T09:18:51;94673.84;;;20.59;60.66
9855;BME280;4966;48.112;9.282;2023-05-09T09:21:18;94670.38;;;21.11;59.34
9855;BME280;4966;48.112;9.282;2023-05-09T09:23:45;94670.28;;;21.25;56.80
9855;BME280;4966;48.112;9.282;2023-05-09T09:26:12;94664.00;;;21.17;56.63
9855;BME280;4966;48.112;9.282;2023-05-09T09:28:37;94651.81;;;20.37;59.41
9855;BME280;4966;48.112;9.282;2023-05-09T09:31:21;94651.53;;;20.10;62.42
9855;BME280;4966;48.112;9.282;2023-05-09T09:33:48;94642.19;;;20.74;60.43
9855;BME280;4966;48.112;9.282;2023-05-09T09:36:13;94646.81;;;20.04;60.79
9855;BME280;4966;48.112;9.282;2023-05-09T09:38:40;94644.13;;;19.82;62.40
9855;BME280;4966;48.112;9.282;2023-05-09T09:41:07;94626.88;;;20.52;60.90
9855;BME280;4966;48.112;9.282;2023-05-09T09:43:35;94620.44;;;20.76;60.16
9855;BME280;4966;48.112;9.282;2023-05-09T09:46:02;94617.22;;;20.89;56.56
9855;BME280;4966;48.112;9.282;2023-05-09T09:48:32;94614.69;;;21.09;54.42
9855;BME280;4966;48.112;9.282;2023-05-09T09:51:06;94607.59;;;20.37;57.74
9855;BME280;4966;48.112;9.282;2023-05-09T09:53:40;94612.84;;;20.91;60.41
9855;BME280;4966;48.112;9.282;2023-05-09T09:56:06;94609.06;;;22.02;53.78
9855;BME280;4966;48.112;9.282;2023-05-09T09:58:32;94600.03;;;22.29;54.83
9855;BME280;4966;48.112;9.282;2023-05-09T10:03:39;94603.34;;;22.78;52.27
9855;BME280;4966;48.112;9.282;2023-05-09T10:06:09;94597.53;;;22.69;50.77
9855;BME280;4966;48.112;9.282;2023-05-09T10:08:35;94598.53;;;23.56;48.76
9855;BME280;4966;48.112;9.282;2023-05-09T10:11:01;94588.91;;;23.85;47.70
9855;BME280;4966;48.112;9.282;2023-05-09T10:13:27;94588.69;;;23.05;49.66
9855;BME280;4966;48.112;9.282;2023-05-09T10:15:53;94581.66;;;23.24;48.69
9855;BME280;4966;48.112;9.282;2023-05-09T10:18:24;94572.56;;;23.23;51.89
9855;BME280;4966;48.112;9.282;2023-05-09T10:20:52;94565.63;;;23.35;51.65
9855;BME280;4966;48.112;9.282;2023-05-09T10:23:18;94564.00;;;22.33;53.27
9855;BME280;4966;48.112;9.282;2023-05-09T10:26:15;94567.75;;;23.71;52.35
9855;BME280;4966;48.112;9.282;2023-05-09T10:28:39;94558.00;;;22.03;54.24
9855;BME280;4966;48.112;9.282;2023-05-09T10:33:41;94551.56;;;23.66;50.08
9855;BME280;4966;48.112;9.282;2023-05-09T10:36:07;94544.41;;;23.88;47.87
9855;BME280;4966;48.112;9.282;2023-05-09T10:38:34;94543.66;;;23.64;49.12
9855;BME280;4966;48.112;9.282;2023-05-09T10:41:00;94542.47;;;22.94;49.26
9855;BME280;4966;48.112;9.282;2023-05-09T10:43:26;94537.47;;;22.59;49.46
9855;BME280;4966;48.112;9.282;2023-05-09T10:45:52;94530.81;;;23.30;49.35
9855;BME280;4966;48.112;9.282;2023-05-09T10:48:18;94528.31;;;23.36;48.64
9855;BME280;4966;48.112;9.282;2023-05-09T10:50:44;94514.03;;;24.17;47.95
9855;BME280;4966;48.112;9.282;2023-05-09T10:53:10;94515.63;;;24.55;48.13
9855;BME280;4966;48.112;9.282;2023-05-09T10:55:55;94509.03;;;24.81;48.45
9855;BME280;4966;48.112;9.282;2023-05-09T10:58:26;94510.16;;;25.33;47.27
9855;BME280;4966;48.112;9.282;2023-05-09T11:00:55;94497.56;;;24.79;45.28
9855;BME280;4966;48.112;9.282;2023-05-09T11:03:21;94488.78;;;24.97;45.24
9855;BME280;4966;48.112;9.282;2023-05-09T11:05:52;94478.63;;;24.74;46.46
9855;BME280;4966;48.112;9.282;2023-05-09T11:08:18;94475.72;;;24.78;48.78
9855;BME280;4966;48.112;9.282;2023-05-09T11:10:44;94474.84;;;24.48;48.36
9855;BME280;4966;48.112;9.282;2023-05-09T11:13:10;94474.41;;;24.66;48.37
9855;BME280;4966;48.112;9.282;2023-05-09T11:15:35;94466.25;;;24.75;46.71
9855;BME280;4966;48.112;9.282;2023-05-09T11:18:14;94460.47;;;25.15;44.48
9855;BME280;4966;48.112;9.282;2023-05-09T11:20:43;94457.75;;;27.84;40.37
9855;BME280;4966;48.112;9.282;2023-05-09T11:23:09;94460.59;;;27.93;38.82
9855;BME280;4966;48.112;9.282;2023-05-09T11:25:37;94448.25;;;28.75;35.10
9855;BME280;4966;48.112;9.282;2023-05-09T11:28:03;94453.28;;;30.89;33.06
9855;BME280;4966;48.112;9.282;2023-05-09T11:30:38;94443.44;;;30.51;33.36
9855;BME280;4966;48.112;9.282;2023-05-09T11:33:05;94443.41;;;30.60;33.54
9855;BME280;4966;48.112;9.282;2023-05-09T11:35:36;94439.50;;;29.04;36.65
9855;BME280;4966;48.112;9.282;2023-05-09T11:38:03;94432.44;;;30.62;35.54
9855;BME280;4966;48.112;9.282;2023-05-09T11:40:30;94426.19;;;31.49;32.89
9855;BME280;4966;48.112;9.282;2023-05-09T11:42:56;94419.09;;;31.92;32.44
9855;BME280;4966;48.112;9.282;2023-05-09T11:45:24;94416.41;;;30.11;33.17
9855;BME280;4966;48.112;9.282;2023-05-09T11:47:51;94409.53;;;27.93;36.89
9855;BME280;4966;48.112;9.282;2023-05-09T11:50:17;94404.44;;;30.53;34.80
9855;BME280;4966;48.112;9.282;2023-05-09T11:52:44;94407.03;;;31.77;32.13
9855;BME280;4966;48.112;9.282;2023-05-09T11:55:11;94399.25;;;32.46;29.30
9855;BME280;4966;48.112;9.282;2023-05-09T11:57:45;94397.47;;;30.72;32.27
9855;BME280;4966;48.112;9.282;2023-05-09T12:00:11;94389.88;;;30.30;33.79
9855;BME280;4966;48.112;9.282;2023-05-09T12:02:37;94385.41;;;30.81;32.80
9855;BME280;4966;48.112;9.282;2023-05-09T12:05:10;94387.88;;;31.12;31.57
9855;BME280;4966;48.112;9.282;2023-05-09T12:07:37;94388.03;;;31.72;30.71
9855;BME280;4966;48.112;9.282;2023-05-09T12:10:05;94375.25;;;31.32;30.93
9855;BME280;4966;48.112;9.282;2023-05-09T12:12:35;94376.25;;;31.20;32.23
9855;BME280;4966;48.112;9.282;2023-05-09T12:15:06;94360.72;;;32.88;29.06
9855;BME280;4966;48.112;9.282;2023-05-09T12:17:32;94360.09;;;33.39;27.52
9855;BME280;4966;48.112;9.282;2023-05-09T12:19:58;94360.06;;;31.53;30.47
9855;BME280;4966;48.112;9.282;2023-05-09T12:22:25;94347.28;;;32.97;29.13
9855;BME280;4966;48.112;9.282;2023-05-09T12:24:50;94358.63;;;31.43;31.88
9855;BME280;4966;48.112;9.282;2023-05-09T12:27:15;94352.47;;;32.13;29.35
9855;BME280;4966;48.112;9.282;2023-05-09T12:29:43;94339.31;;;32.96;28.79
9855;BME280;4966;48.112;9.282;2023-05-09T12:32:11;94336.84;;;30.90;31.99
9855;BME280;4966;48.112;9.282;2023-05-09T12:34:37;94337.69;;;31.89;31.77
9855;BME280;4966;48.112;9.282;2023-05-09T12:37:02;94327.84;;;30.28;32.79
9855;BME280;4966;48.112;9.282;2023-05-09T12:39:27;94324.59;;;30.78;33.11
9855;BME280;4966;48.112;9.282;2023-05-09T12:41:53;94318.97;;;30.54;33.71
9855;BME280;4966;48.112;9.282;2023-05-09T12:44:23;94318.53;;;29.71;35.41
9855;BME280;4966;48.112;9.282;2023-05-09T12:47:11;94310.47;;;30.06;34.04
9855;BME280;4966;48.112;9.282;2023-05-09T12:49:36;94311.59;;;30.90;32.01
9855;BME280;4966;48.112;9.282;2023-05-09T12:52:02;94312.06;;;30.31;31.17
9855;BME280;4966;48.112;9.282;2023-05-09T12:54:28;94314.72;;;29.92;33.92
9855;BME280;4966;48.112;9.282;2023-05-09T12:56:55;94303.94;;;30.00;33.90
9855;BME280;4966;48.112;9.282;2023-05-09T12:59:28;94302.09;;;29.97;32.63
9855;BME280;4966;48.112;9.282;2023-05-09T13:02:00;94297.00;;;29.86;33.05
9855;BME280;4966;48.112;9.282;2023-05-09T13:04:27;94297.91;;;29.13;33.85
9855;BME280;4966;48.112;9.282;2023-05-09T13:06:56;94291.31;;;27.61;36.06
9855;BME280;4966;48.112;9.282;2023-05-09T13:09:24;94285.25;;;28.43;36.41
9855;BME280;4966;48.112;9.282;2023-05-09T13:11:50;94290.25;;;29.41;35.93
9855;BME280;4966;48.112;9.282;2023-05-09T13:14:17;94282.97;;;29.25;35.05
9855;BME280;4966;48.112;9.282;2023-05-09T13:16:43;94284.81;;;29.37;33.93
9855;BME280;4966;48.112;9.282;2023-05-09T13:19:09;94280.09;;;29.62;34.62
9855;BME280;4966;48.112;9.282;2023-05-09T13:21:35;94265.69;;;29.36;35.64
9855;BME280;4966;48.112;9.282;2023-05-09T13:24:01;94268.69;;;27.15;36.57
9855;BME280;4966;48.112;9.282;2023-05-09T13:26:27;94264.34;;;27.14;37.76
9855;BME280;4966;48.112;9.282;2023-05-09T13:28:52;94263.94;;;27.25;39.11
9855;BME280;4966;48.112;9.282;2023-05-09T13:31:18;94264.34;;;28.08;36.95
9855;BME280;4966;48.112;9.282;2023-05-09T13:33:43;94258.41;;;28.83;36.79
9855;BME280;4966;48.112;9.282;2023-05-09T13:36:09;94250.94;;;29.08;33.97